Time;durP1;ratioP1;P1;durP2;ratioP2;P2;SDS_P1;SDS_P2;PMS_P1;PMS_P2;Temp;Humidity;BMP_temperature;BMP_pressure;BME280_temperature;BME280_humidity;BME280_pressure;Samples;Min_cycle;Max_cycle;Signal;HPM_P1;HPM_P2
2023/12/21 00:02:21;;;;;;;22.80;4.88;;;9.20;99.90;;;;;;5097313;28;20093;-69
2023/12/21 00:04:49;;;;;;;18.52;4.00;;;9.30;99.90;;;;;;5097410;28;20124;-69
2023/12/21 00:07:17;;;;;;;14.63;4.10;;;9.30;99.90;;;;;;5096891;28;20047;-69
2023/12/21 00:09:44;;;;;;;18.45;5.45;;;9.20;99.90;;;;;;5097251;28;20050;-69
2023/12/21 00:12:11;;;;;;;20.92;4.10;;;9.30;99.90;;;;;;5097264;28;20441;-69
2023/12/21 00:14:38;;;;;;;15.48;5.22;;;9.30;99.90;;;;;;5096691;28;20465;-69
2023/12/21 00:17:04;;;;;;;14.95;3.80;;;9.30;99.90;;;;;;5097163;28;20434;-69
2023/12/21 00:19:31;;;;;;;16.65;4.50;;;9.30;99.90;;;;;;5097103;28;20056;-70
2023/12/21 00:21:58;;;;;;;14.30;4.70;;;9.30;99.90;;;;;;5096782;28;20104;-70
2023/12/21 00:24:26;;;;;;;21.60;4.53;;;9.30;99.90;;;;;;5096689;28;20044;-69
2023/12/21 00:26:53;;;;;;;15.85;4.50;;;9.30;99.90;;;;;;5096767;28;20051;-70
2023/12/21 00:29:20;;;;;;;18.17;4.63;;;9.30;99.90;;;;;;5094331;28;20047;-70
2023/12/21 00:31:47;;;;;;;15.55;3.55;;;9.30;99.90;;;;;;5097030;28;20056;-70
2023/12/21 00:34:14;;;;;;;17.02;3.90;;;9.20;99.90;;;;;;5096905;28;20044;-70
2023/12/21 00:36:41;;;;;;;19.80;4.15;;;9.30;99.90;;;;;;5096083;28;20044;-69
2023/12/21 00:39:08;;;;;;;17.08;4.53;;;9.30;99.90;;;;;;5096432;28;20444;-70
2023/12/21 00:41:37;;;;;;;17.20;3.67;;;9.30;99.90;;;;;;5094445;28;20075;-70
2023/12/21 00:44:04;;;;;;;19.85;4.47;;;9.40;99.90;;;;;;5095829;28;20051;-69
2023/12/21 00:46:31;;;;;;;15.90;4.28;;;9.30;99.90;;;;;;5096359;28;20051;-69
2023/12/21 00:48:57;;;;;;;17.73;4.22;;;9.30;99.90;;;;;;5114262;28;20047;-68
2023/12/21 00:51:24;;;;;;;14.02;4.28;;;9.30;99.90;;;;;;5114485;28;20048;-68
2023/12/21 00:53:51;;;;;;;15.60;4.35;;;9.30;99.90;;;;;;5096512;28;20048;-69
2023/12/21 00:56:18;;;;;;;19.17;3.95;;;9.30;99.90;;;;;;5095810;28;20051;-69
2023/12/21 00:58:46;;;;;;;14.18;4.63;;;9.30;99.90;;;;;;5096359;28;20108;-70
2023/12/21 01:01:13;;;;;;;18.90;4.07;;;9.30;99.90;;;;;;5094080;28;20046;-72
2023/12/21 01:03:40;;;;;;;14.02;3.80;;;9.30;99.90;;;;;;5095573;28;20078;-71
2023/12/21 01:06:07;;;;;;;19.67;4.05;;;9.30;99.90;;;;;;5096360;28;20097;-71
2023/12/21 01:08:34;;;;;;;19.00;4.63;;;9.30;99.90;;;;;;5096260;28;20047;-71
2023/12/21 01:11:01;;;;;;;16.00;3.72;;;9.30;99.90;;;;;;5095311;28;20047;-71
2023/12/21 01:13:28;;;;;;;19.00;4.22;;;9.20;99.90;;;;;;5096206;28;20047;-71
2023/12/21 01:15:56;;;;;;;15.38;4.80;;;9.30;99.90;;;;;;5095979;28;20093;-71
2023/12/21 01:18:23;;;;;;;15.38;3.60;;;9.30;99.90;;;;;;5095556;28;20043;-71
2023/12/21 01:20:50;;;;;;;21.27;4.72;;;9.30;99.90;;;;;;5113890;28;20104;-71
2023/12/21 01:23:17;;;;;;;12.45;4.28;;;9.30;99.90;;;;;;5096033;28;20047;-71
2023/12/21 01:25:44;;;;;;;17.15;4.07;;;9.30;99.90;;;;;;5095354;28;20075;-71
2023/12/21 01:28:11;;;;;;;15.63;4.25;;;9.30;99.90;;;;;;5095864;28;20445;-70
2023/12/21 01:30:38;;;;;;;21.63;4.95;;;9.20;99.90;;;;;;5095514;28;20105;-71
2023/12/21 01:33:06;;;;;;;16.48;4.25;;;9.20;99.90;;;;;;5095183;28;20445;-71
2023/12/21 01:35:33;;;;;;;17.70;4.65;;;9.20;99.90;;;;;;5095792;28;20067;-71
2023/12/21 01:38:00;;;;;;;17.30;4.78;;;9.20;99.90;;;;;;5094963;28;20052;-70
2023/12/21 01:40:27;;;;;;;19.58;3.95;;;9.60;99.90;;;;;;5095640;28;20043;-70
2023/12/21 01:42:54;;;;;;;14.85;4.80;;;9.20;99.90;;;;;;5095459;28;20043;-70
2023/12/21 01:45:21;;;;;;;21.45;4.55;;;9.20;99.90;;;;;;5094534;28;20066;-70
2023/12/21 01:47:48;;;;;;;14.43;4.55;;;9.10;99.90;;;;;;5113769;28;20043;-71
2023/12/21 01:50:16;;;;;;;17.08;4.72;;;9.10;99.90;;;;;;5094422;28;20043;-70
2023/12/21 01:52:44;;;;;;;16.77;4.10;;;9.10;99.90;;;;;;5094848;28;20407;-70
2023/12/21 01:55:13;;;;;;;12.02;3.95;;;9.10;99.90;;;;;;5095405;28;20048;-70
2023/12/21 01:57:41;;;;;;;12.75;4.15;;;9.10;99.90;;;;;;5095289;28;20120;-70
2023/12/21 02:00:09;;;;;;;13.70;4.50;;;9.00;99.90;;;;;;5094725;28;20059;-70
2023/12/21 02:02:35;;;;;;;18.50;5.85;;;9.10;99.90;;;;;;5095454;28;20059;-71
2023/12/21 02:05:02;;;;;;;18.95;5.10;;;9.10;99.90;;;;;;5094708;28;20406;-71
2023/12/21 02:07:31;;;;;;;17.45;5.03;;;9.00;99.90;;;;;;5093966;28;20047;-72
2023/12/21 02:09:57;;;;;;;22.65;5.43;;;9.00;99.90;;;;;;5094873;28;20073;-70
2023/12/21 02:12:24;;;;;;;13.98;4.05;;;9.00;99.90;;;;;;5094988;28;20051;-69
2023/12/21 02:14:51;;;;;;;15.40;4.93;;;9.00;99.90;;;;;;5094760;28;20096;-69
2023/12/21 02:17:21;;;;;;;17.85;4.82;;;9.00;99.90;;;;;;5095062;28;20483;-70
2023/12/21 02:19:50;;;;;;;22.92;4.90;;;9.00;99.90;;;;;;5094980;28;20048;-69
2023/12/21 02:22:18;;;;;;;15.35;5.00;;;9.00;99.90;;;;;;5094214;28;20104;-70
2023/12/21 02:24:47;;;;;;;19.05;4.65;;;9.00;99.90;;;;;;5093038;28;20391;-69
2023/12/21 02:27:14;;;;;;;18.42;5.13;;;9.00;99.90;;;;;;5094204;28;20105;-69
2023/12/21 02:29:41;;;;;;;23.80;4.50;;;9.00;99.90;;;;;;5094280;28;20044;-69
2023/12/21 02:32:08;;;;;;;14.65;4.70;;;9.00;99.90;;;;;;5092275;28;20100;-69
2023/12/21 02:34:35;;;;;;;10.45;4.28;;;9.00;99.90;;;;;;5112107;28;20044;-68
2023/12/21 02:37:02;;;;;;;17.60;4.40;;;9.00;99.90;;;;;;5094426;28;20039;-69
2023/12/21 02:39:29;;;;;;;16.70;4.50;;;9.00;99.90;;;;;;5094434;28;20048;-69
2023/12/21 02:41:57;;;;;;;16.38;4.82;;;9.00;99.90;;;;;;5093951;28;20071;-69
2023/12/21 02:44:24;;;;;;;19.40;5.32;;;9.00;99.90;;;;;;5090995;28;20093;-69
2023/12/21 02:46:51;;;;;;;15.30;4.30;;;9.00;99.90;;;;;;5090872;28;20427;-69
2023/12/21 02:49:17;;;;;;;11.80;4.13;;;9.00;99.90;;;;;;5090421;28;20117;-68
2023/12/21 02:51:44;;;;;;;24.85;5.50;;;9.10;99.90;;;;;;5090640;28;20044;-69
2023/12/21 02:54:11;;;;;;;11.20;4.45;;;9.00;99.90;;;;;;5090971;28;20056;-69
2023/12/21 02:56:38;;;;;;;14.93;4.65;;;9.00;99.90;;;;;;5090229;28;20047;-70
2023/12/21 02:59:06;;;;;;;14.35;4.60;;;9.00;99.90;;;;;;5091253;28;20051;-69
2023/12/21 03:01:33;;;;;;;18.92;4.32;;;9.00;99.90;;;;;;5091018;28;20051;-69
2023/12/21 03:04:00;;;;;;;19.77;4.68;;;9.00;99.90;;;;;;5094501;28;20056;-69
2023/12/21 03:06:27;;;;;;;14.15;4.22;;;9.00;99.90;;;;;;5094923;28;20059;-68
2023/12/21 03:08:54;;;;;;;12.52;5.38;;;9.10;99.90;;;;;;5095281;28;20545;-68
2023/12/21 03:11:21;;;;;;;16.17;4.88;;;9.10;99.90;;;;;;5094477;28;20052;-69
2023/12/21 03:13:48;;;;;;;15.55;3.85;;;9.10;99.90;;;;;;5093016;28;20081;-69
2023/12/21 03:16:18;;;;;;;15.98;5.03;;;9.00;99.90;;;;;;5096047;28;20044;-69
2023/12/21 03:18:45;;;;;;;13.95;4.28;;;9.00;99.90;;;;;;5094438;28;20075;-69
2023/12/21 03:21:13;;;;;;;14.30;4.03;;;9.10;99.90;;;;;;5092817;28;20391;-69
2023/12/21 03:23:40;;;;;;;12.23;4.40;;;9.00;99.90;;;;;;5094375;28;20098;-69
2023/12/21 03:26:07;;;;;;;13.68;4.25;;;9.00;99.90;;;;;;5095976;28;20051;-69
2023/12/21 03:28:34;;;;;;;13.75;4.05;;;9.00;99.90;;;;;;5094772;28;20496;-70
2023/12/21 03:31:01;;;;;;;13.20;4.30;;;9.00;99.90;;;;;;5093753;28;20043;-69
2023/12/21 03:33:29;;;;;;;18.33;5.20;;;9.10;99.90;;;;;;5094830;28;20105;-69
2023/12/21 03:35:56;;;;;;;12.55;3.80;;;9.00;99.90;;;;;;5094485;28;20117;-69
2023/12/21 03:38:23;;;;;;;14.55;3.83;;;9.00;99.90;;;;;;5093771;28;20097;-69
2023/12/21 03:40:50;;;;;;;10.57;3.72;;;9.10;99.90;;;;;;5094303;28;20044;-69
2023/12/21 03:43:17;;;;;;;14.55;4.90;;;9.00;99.90;;;;;;5094335;28;20466;-68
2023/12/21 03:45:44;;;;;;;12.10;4.20;;;9.00;99.90;;;;;;5093564;28;20048;-69
2023/12/21 03:48:11;;;;;;;18.05;4.97;;;9.10;99.90;;;;;;5094171;28;20101;-70
2023/12/21 03:50:39;;;;;;;11.30;3.97;;;9.10;99.90;;;;;;5094108;28;20089;-69
2023/12/21 03:53:07;;;;;;;12.48;4.20;;;9.10;99.90;;;;;;5093748;28;20055;-69
2023/12/21 03:55:36;;;;;;;22.65;5.60;;;9.10;99.90;;;;;;5094003;28;20087;-68
2023/12/21 03:58:03;;;;;;;16.52;5.22;;;9.10;99.90;;;;;;5094175;28;20047;-69
2023/12/21 04:00:30;;;;;;;14.07;4.90;;;9.10;99.90;;;;;;5091468;28;20056;-68
2023/12/21 04:02:57;;;;;;;11.38;3.65;;;9.10;99.90;;;;;;5093578;28;20133;-68
2023/12/21 04:05:24;;;;;;;12.38;4.40;;;9.10;99.90;;;;;;5094221;28;20059;-69
2023/12/21 04:07:52;;;;;;;12.32;4.07;;;9.20;99.90;;;;;;5093243;28;20052;-68
2023/12/21 04:10:19;;;;;;;12.13;3.97;;;9.10;99.90;;;;;;5093813;28;20051;-68
2023/12/21 04:12:46;;;;;;;10.23;4.47;;;9.00;99.90;;;;;;5092560;28;20104;-69
2023/12/21 04:15:13;;;;;;;12.90;3.40;;;9.00;99.90;;;;;;5093838;28;20048;-68
2023/12/21 04:17:40;;;;;;;16.92;4.35;;;9.10;99.90;;;;;;5093825;28;20106;-69
2023/12/21 04:20:08;;;;;;;12.65;3.90;;;9.00;99.90;;;;;;5093357;28;20078;-69
2023/12/21 04:22:35;;;;;;;15.10;4.40;;;9.00;99.90;;;;;;5093341;28;20088;-68
2023/12/21 04:25:03;;;;;;;10.65;4.40;;;9.00;99.90;;;;;;5093716;28;20494;-69
2023/12/21 04:27:30;;;;;;;15.45;4.50;;;9.00;99.90;;;;;;5093018;28;20062;-70
2023/12/21 04:29:57;;;;;;;22.42;4.97;;;9.00;99.90;;;;;;5094758;28;20078;-68
2023/12/21 04:32:24;;;;;;;16.02;3.42;;;9.10;99.90;;;;;;5090971;28;20040;-69
2023/12/21 04:34:51;;;;;;;13.40;3.65;;;8.90;99.90;;;;;;5093019;28;20104;-70
2023/12/21 04:37:18;;;;;;;17.63;4.25;;;9.00;99.90;;;;;;5093457;28;20048;-69
2023/12/21 04:39:45;;;;;;;15.00;4.10;;;9.00;99.90;;;;;;5093440;28;20055;-70
2023/12/21 04:42:13;;;;;;;16.05;4.35;;;9.00;99.90;;;;;;5092468;28;20492;-70
2023/12/21 04:44:40;;;;;;;16.42;4.93;;;9.00;99.90;;;;;;5093269;28;20052;-71
2023/12/21 04:47:08;;;;;;;12.40;3.83;;;9.00;99.90;;;;;;5093027;28;20050;-70
2023/12/21 04:49:35;;;;;;;12.55;3.35;;;9.00;99.90;;;;;;5092748;28;20044;-70
2023/12/21 04:52:03;;;;;;;13.65;3.92;;;9.00;99.90;;;;;;5092888;28;20052;-70
2023/12/21 04:54:30;;;;;;;9.85;3.30;;;9.00;99.90;;;;;;5093139;28;20055;-69
2023/12/21 04:56:57;;;;;;;9.20;3.95;;;8.90;99.90;;;;;;5093560;28;20048;-69
2023/12/21 04:59:25;;;;;;;11.25;4.40;;;9.00;99.90;;;;;;5092916;28;20048;-70
2023/12/21 05:01:56;;;;;;;10.20;3.58;;;9.00;99.90;;;;;;5092670;28;20566;-69
2023/12/21 05:04:23;;;;;;;12.85;3.50;;;8.90;99.90;;;;;;5092101;28;20048;-70
2023/12/21 05:06:50;;;;;;;12.88;3.28;;;9.00;99.90;;;;;;5090795;28;20075;-70
2023/12/21 05:09:17;;;;;;;11.05;3.58;;;9.00;99.90;;;;;;5092254;28;20056;-70
2023/12/21 05:11:44;;;;;;;13.70;3.88;;;9.00;99.90;;;;;;5092774;28;20488;-70
2023/12/21 05:14:11;;;;;;;8.27;3.92;;;9.00;99.90;;;;;;5092850;28;20085;-70
2023/12/21 05:16:40;;;;;;;13.90;3.72;;;9.00;99.90;;;;;;5092081;28;20048;-69
2023/12/21 05:19:07;;;;;;;13.23;4.63;;;9.00;99.90;;;;;;5090837;28;20086;-70
2023/12/21 05:21:35;;;;;;;11.20;3.95;;;9.00;99.90;;;;;;5092437;28;20040;-70
2023/12/21 05:24:02;;;;;;;13.57;4.43;;;9.00;99.90;;;;;;5091113;28;20044;-69
2023/12/21 05:26:29;;;;;;;20.42;5.30;;;9.00;99.90;;;;;;5089004;28;20437;-69
2023/12/21 05:28:57;;;;;;;8.85;3.38;;;9.10;99.90;;;;;;5086289;28;20052;-69
2023/12/21 05:31:24;;;;;;;15.88;4.00;;;9.00;99.90;;;;;;5089651;28;20036;-69
2023/12/21 05:33:53;;;;;;;12.32;3.78;;;9.00;99.90;;;;;;5091545;28;20376;-69
2023/12/21 05:36:23;;;;;;;9.55;3.67;;;9.10;99.90;;;;;;5089846;28;20492;-68
2023/12/21 05:38:50;;;;;;;;;;;9.20;99.90;;;;;;5087405;28;20404;-69
2023/12/21 05:41:17;;;;;;;17.33;3.85;;;9.10;99.90;;;;;;5091140;28;19969;-68
2023/12/21 05:43:44;;;;;;;12.70;3.65;;;9.10;99.90;;;;;;5090717;28;20048;-69
2023/12/21 05:46:11;;;;;;;14.60;4.38;;;9.00;99.90;;;;;;5093887;28;20047;-69
2023/12/21 05:48:38;;;;;;;15.70;3.65;;;9.10;99.90;;;;;;5091249;28;20183;-69
2023/12/21 05:51:06;;;;;;;18.10;3.95;;;9.00;99.90;;;;;;5093761;28;20088;-70
2023/12/21 05:53:33;;;;;;;15.95;3.65;;;9.00;99.90;;;;;;5092524;28;20214;-69
2023/12/21 05:56:01;;;;;;;12.13;3.58;;;9.00;99.90;;;;;;5090773;28;20130;-69
2023/12/21 05:58:27;;;;;;;13.98;3.42;;;9.10;99.90;;;;;;5092279;28;20046;-70
2023/12/21 06:00:54;;;;;;;12.82;3.30;;;9.00;99.90;;;;;;5094589;28;20395;-70
2023/12/21 06:03:21;;;;;;;9.23;3.17;;;9.10;99.90;;;;;;5094346;28;20138;-68
2023/12/21 06:05:48;;;;;;;10.77;3.05;;;9.10;99.90;;;;;;5091284;28;20048;-68
2023/12/21 06:08:16;;;;;;;14.30;3.70;;;9.00;99.90;;;;;;5090111;28;20051;-68
2023/12/21 06:10:43;;;;;;;18.85;4.45;;;9.10;99.90;;;;;;5090708;28;20048;-69
2023/12/21 06:13:10;;;;;;;22.38;4.95;;;9.10;99.90;;;;;;5093010;28;20104;-69
2023/12/21 06:15:37;;;;;;;13.05;3.58;;;9.00;99.90;;;;;;5091812;28;20109;-69
2023/12/21 06:18:05;;;;;;;16.65;3.72;;;9.00;99.90;;;;;;5093657;28;20058;-80
2023/12/21 06:20:35;;;;;;;12.50;4.13;;;9.30;99.90;;;;;;5092581;28;20456;-68
2023/12/21 06:23:02;;;;;;;12.23;4.05;;;9.20;99.90;;;;;;5093095;28;20075;-68
2023/12/21 06:25:31;;;;;;;12.90;4.03;;;9.20;99.90;;;;;;5088364;28;20087;-69
2023/12/21 06:27:58;;;;;;;21.42;4.72;;;9.20;99.90;;;;;;5092838;28;20047;-71
2023/12/21 06:30:25;;;;;;;23.52;4.28;;;9.20;99.90;;;;;;5092792;28;20434;-70
2023/12/21 06:32:51;;;;;;;13.15;4.40;;;9.20;99.90;;;;;;5092866;28;20445;-69
2023/12/21 06:35:18;;;;;;;13.27;3.55;;;9.20;99.90;;;;;;5088670;28;20059;-69
2023/12/21 06:37:45;;;;;;;13.02;2.92;;;9.30;99.90;;;;;;5088423;28;20052;-69
2023/12/21 06:40:13;;;;;;;10.55;3.17;;;9.20;99.90;;;;;;5109681;28;20500;-69
2023/12/21 06:42:41;;;;;;;11.18;3.55;;;9.30;99.90;;;;;;5091339;28;20044;-70
2023/12/21 06:45:09;;;;;;;11.65;3.25;;;9.20;99.90;;;;;;5087034;28;20056;-70
2023/12/21 06:47:37;;;;;;;12.93;3.58;;;9.20;99.90;;;;;;5077292;28;20427;-69
2023/12/21 06:50:05;;;;;;;12.15;3.10;;;9.20;99.90;;;;;;5070004;28;20059;-70
2023/12/21 06:52:32;;;;;;;9.02;3.17;;;9.20;99.90;;;;;;5069868;28;20045;-69
2023/12/21 06:54:59;;;;;;;8.38;3.65;;;9.20;99.90;;;;;;5070718;28;20105;-70
2023/12/21 06:57:26;;;;;;;9.13;3.00;;;9.20;99.90;;;;;;5070269;28;20086;-71
2023/12/21 06:59:54;;;;;;;10.60;2.72;;;9.20;99.90;;;;;;5079717;28;20056;-70
2023/12/21 07:02:21;;;;;;;8.93;3.00;;;9.20;99.90;;;;;;5063266;28;20447;-70
2023/12/21 07:04:48;;;;;;;7.55;2.20;;;9.20;99.90;;;;;;5064258;28;20048;-70
2023/12/21 07:07:15;;;;;;;5.80;2.80;;;9.10;99.90;;;;;;5069178;28;20117;-70
2023/12/21 07:09:42;;;;;;;8.20;2.55;;;9.10;99.90;;;;;;5068297;28;20053;-70
2023/12/21 07:12:09;;;;;;;6.28;2.22;;;9.10;99.90;;;;;;5072396;28;20071;-68
2023/12/21 07:14:39;;;;;;;7.88;2.28;;;9.20;99.90;;;;;;5067464;28;20102;-69
2023/12/21 07:17:08;;;;;;;7.85;2.22;;;9.10;99.90;;;;;;5070152;28;20132;-70
2023/12/21 07:19:37;;;;;;;8.27;2.70;;;9.10;99.90;;;;;;5065453;28;20105;-69
2023/12/21 07:22:05;;;;;;;7.35;2.45;;;9.10;99.90;;;;;;5066479;28;20462;-70
2023/12/21 07:24:32;;;;;;;4.65;1.73;;;9.10;99.90;;;;;;5068356;28;20498;-69
2023/12/21 07:26:59;;;;;;;6.25;2.10;;;9.10;99.90;;;;;;5065539;28;20048;-69
2023/12/21 07:29:26;;;;;;;3.90;1.80;;;9.10;99.90;;;;;;5078881;28;20048;-69
2023/12/21 07:31:52;;;;;;;8.13;2.13;;;9.00;99.90;;;;;;5069332;28;20485;-69
2023/12/21 07:34:21;;;;;;;6.45;1.85;;;9.10;99.90;;;;;;5069399;28;20465;-69
2023/12/21 07:36:47;;;;;;;6.45;1.80;;;9.20;99.90;;;;;;5064132;28;20087;-69
2023/12/21 07:39:14;;;;;;;7.15;2.45;;;9.10;99.90;;;;;;5069047;28;20057;-69
2023/12/21 07:41:41;;;;;;;8.23;2.28;;;9.10;99.90;;;;;;5070515;28;20040;-69
2023/12/21 07:44:08;;;;;;;8.05;2.30;;;9.20;99.90;;;;;;5069066;28;20061;-69
2023/12/21 07:46:35;;;;;;;8.63;2.25;;;9.10;99.90;;;;;;5068436;28;20501;-69
2023/12/21 07:49:03;;;;;;;11.93;2.83;;;9.20;99.90;;;;;;5073065;28;20106;-68
2023/12/21 07:51:31;;;;;;;8.80;2.95;;;9.20;99.90;;;;;;5069812;28;20049;-69
2023/12/21 07:53:58;;;;;;;7.75;2.55;;;9.20;99.90;;;;;;5071979;28;20049;-69
2023/12/21 07:56:25;;;;;;;12.95;2.83;;;9.20;99.90;;;;;;5071851;28;20177;-68
2023/12/21 07:58:52;;;;;;;11.65;3.65;;;9.20;99.90;;;;;;5068788;28;20501;-69
2023/12/21 08:01:19;;;;;;;11.60;3.00;;;9.10;99.90;;;;;;5073078;28;20111;-68
2023/12/21 08:03:45;;;;;;;12.15;2.40;;;9.20;99.90;;;;;;5082315;28;20116;-69
2023/12/21 08:06:20;;;;;;;8.98;2.47;;;9.20;99.90;;;;;;5073128;28;20094;-69
2023/12/21 08:08:52;;;;;;;8.52;2.70;;;9.20;99.90;;;;;;5072029;28;20054;-70
2023/12/21 08:11:19;;;;;;;10.30;3.20;;;9.10;99.90;;;;;;5071014;28;20048;-69
2023/12/21 08:13:46;;;;;;;11.02;2.80;;;9.10;99.90;;;;;;5072862;28;20064;-69
2023/12/21 08:16:13;;;;;;;14.52;3.63;;;9.20;99.90;;;;;;5072546;28;20051;-69
2023/12/21 08:18:40;;;;;;;8.10;3.53;;;9.30;99.90;;;;;;5069336;28;20126;-69
2023/12/21 08:21:07;;;;;;;9.15;2.95;;;9.20;99.90;;;;;;5073014;28;20488;-69
2023/12/21 08:23:34;;;;;;;14.95;3.67;;;9.30;99.90;;;;;;5088068;28;20446;-71
2023/12/21 08:26:03;;;;;;;14.93;4.30;;;9.30;99.90;;;;;;5082998;28;20048;-69
2023/12/21 08:28:31;;;;;;;15.13;4.10;;;9.30;99.90;;;;;;5072469;28;20127;-70
2023/12/21 08:30:58;;;;;;;18.17;4.60;;;9.30;99.90;;;;;;5083840;28;20075;-69
2023/12/21 08:33:25;;;;;;;15.82;3.88;;;9.40;99.90;;;;;;5089279;28;20048;-69
2023/12/21 08:35:52;;;;;;;20.80;5.05;;;9.30;99.90;;;;;;5090196;28;20412;-69
2023/12/21 08:38:20;;;;;;;23.13;4.45;;;9.40;99.90;;;;;;5090562;28;20451;-69
2023/12/21 08:40:47;;;;;;;16.98;4.50;;;9.40;99.90;;;;;;5082609;28;20066;-69
2023/12/21 08:43:15;;;;;;;21.27;4.55;;;9.50;99.90;;;;;;5071987;28;20144;-70
2023/12/21 08:45:42;;;;;;;24.45;4.82;;;9.40;99.90;;;;;;5085024;28;20056;-70
2023/12/21 08:48:09;;;;;;;26.10;4.70;;;9.50;99.90;;;;;;5072114;28;20091;-70
2023/12/21 08:50:36;;;;;;;15.65;5.20;;;9.50;99.90;;;;;;5076781;28;20052;-70
2023/12/21 08:53:04;;;;;;;18.23;5.18;;;9.60;99.90;;;;;;5091343;28;20044;-70
2023/12/21 08:55:30;;;;;;;18.55;4.20;;;9.60;99.90;;;;;;5091524;28;20060;-70
2023/12/21 08:57:58;;;;;;;20.65;4.10;;;9.60;99.90;;;;;;5079215;28;20044;-70
2023/12/21 09:00:26;;;;;;;20.00;4.90;;;9.60;99.90;;;;;;5073760;28;20087;-70
2023/12/21 09:02:53;;;;;;;12.02;3.55;;;9.70;99.90;;;;;;5068595;28;20504;-70
2023/12/21 09:05:20;;;;;;;15.10;3.83;;;9.60;99.90;;;;;;5071262;28;20098;-70
2023/12/21 09:07:46;;;;;;;15.07;4.00;;;9.70;99.90;;;;;;5071399;28;20484;-70
2023/12/21 09:10:13;;;;;;;12.18;3.53;;;9.70;99.90;;;;;;5069512;28;20496;-70
2023/12/21 09:12:40;;;;;;;13.02;3.80;;;9.70;99.90;;;;;;5072006;28;20045;-70
2023/12/21 09:15:09;;;;;;;14.77;3.60;;;9.70;99.90;;;;;;5070422;28;20103;-70
2023/12/21 09:17:37;;;;;;;13.20;3.22;;;9.80;99.90;;;;;;5071506;28;20095;-70
2023/12/21 09:20:05;;;;;;;14.68;3.53;;;9.80;99.90;;;;;;5072920;28;20059;-71
2023/12/21 09:22:32;;;;;;;21.65;4.55;;;9.80;99.90;;;;;;5072251;28;20121;-71
2023/12/21 09:25:01;;;;;;;17.55;3.58;;;9.80;99.90;;;;;;5071887;28;20103;-70
2023/12/21 09:27:30;;;;;;;18.35;5.43;;;9.90;99.90;;;;;;5069248;28;20057;-70
2023/12/21 09:29:58;;;;;;;26.20;4.50;;;9.80;99.90;;;;;;5072233;28;20102;-70
2023/12/21 09:32:25;;;;;;;20.17;4.10;;;9.90;99.90;;;;;;5088137;28;20048;-70
2023/12/21 09:34:53;;;;;;;17.90;4.20;;;9.90;99.90;;;;;;5070411;28;20059;-70
2023/12/21 09:37:20;;;;;;;20.50;4.70;;;9.90;99.90;;;;;;5073145;28;20056;-69
2023/12/21 09:39:46;;;;;;;16.55;3.75;;;10.10;99.90;;;;;;5082812;28;20105;-69
2023/12/21 09:42:16;;;;;;;15.98;3.67;;;10.10;99.90;;;;;;5091162;28;20044;-69
2023/12/21 09:44:46;;;;;;;22.15;4.10;;;10.10;99.90;;;;;;5090922;28;20059;-69
2023/12/21 09:47:16;;;;;;;;;;;10.20;99.90;;;;;;5072135;28;20446;-69
2023/12/21 09:49:44;;;;;;;13.82;4.40;;;10.20;99.90;;;;;;5074419;28;19962;-70
2023/12/21 09:52:13;;;;;;;11.98;3.80;;;10.20;99.90;;;;;;5071441;28;20048;-71
2023/12/21 09:54:42;;;;;;;15.68;3.63;;;10.20;99.90;;;;;;5074004;28;20121;-69
2023/12/21 09:57:10;;;;;;;18.35;4.18;;;10.20;99.90;;;;;;5069231;28;20052;-69
2023/12/21 09:59:37;;;;;;;9.70;3.15;;;10.20;99.90;;;;;;5071481;28;20052;-69
2023/12/21 10:02:11;;;;;;;12.48;3.47;;;10.20;99.90;;;;;;5072618;28;20068;-69
2023/12/21 10:04:41;;;;;;;13.88;3.38;;;10.20;99.90;;;;;;5069036;28;20056;-70
2023/12/21 10:07:09;;;;;;;10.32;3.17;;;10.10;99.90;;;;;;5070090;28;20079;-69
2023/12/21 10:09:38;;;;;;;14.35;3.15;;;10.20;99.90;;;;;;5069502;28;20052;-70
2023/12/21 10:12:05;;;;;;;11.40;3.17;;;10.20;99.90;;;;;;5071660;28;20041;-69
2023/12/21 10:14:32;;;;;;;15.38;4.35;;;10.30;99.90;;;;;;5069079;28;20113;-69
2023/12/21 10:16:59;;;;;;;13.98;3.17;;;10.30;99.90;;;;;;5072088;28;20525;-70
2023/12/21 10:19:26;;;;;;;16.13;3.53;;;10.50;99.90;;;;;;5071068;28;20044;-69
2023/12/21 10:21:54;;;;;;;7.05;2.97;;;10.50;99.90;;;;;;5069640;28;20095;-70
2023/12/21 10:24:21;;;;;;;14.70;3.95;;;10.60;99.90;;;;;;5071158;28;20060;-70
2023/12/21 10:26:51;;;;;;;15.38;3.30;;;10.70;99.90;;;;;;5069182;28;20056;-70
2023/12/21 10:29:18;;;;;;;19.40;3.75;;;10.70;99.90;;;;;;5069406;28;20040;-70
2023/12/21 10:31:46;;;;;;;15.07;3.75;;;10.70;99.90;;;;;;5072781;28;20036;-69
2023/12/21 10:34:14;;;;;;;18.38;4.22;;;10.70;99.90;;;;;;5070687;28;20489;-69
2023/12/21 10:36:42;;;;;;;17.27;3.42;;;10.60;99.90;;;;;;5071518;28;20055;-70
2023/12/21 10:39:10;;;;;;;12.13;2.67;;;10.60;99.90;;;;;;5070891;28;20048;-70
2023/12/21 10:41:40;;;;;;;16.95;3.60;;;10.60;99.90;;;;;;5069135;28;20065;-69
2023/12/21 10:44:09;;;;;;;15.03;3.50;;;10.60;99.90;;;;;;5072402;28;20450;-70
2023/12/21 10:46:38;;;;;;;15.20;3.65;;;10.70;99.90;;;;;;5074525;28;20052;-70
2023/12/21 10:49:06;;;;;;;14.88;3.47;;;10.70;99.90;;;;;;5073671;28;20044;-70
2023/12/21 10:51:35;;;;;;;13.60;3.35;;;10.80;99.90;;;;;;5072758;28;20047;-70
2023/12/21 10:54:03;;;;;;;13.83;3.57;;;10.80;99.90;;;;;;5083515;28;20132;-70
2023/12/21 10:56:31;;;;;;;9.85;3.35;;;10.80;99.90;;;;;;5093636;28;20445;-69
2023/12/21 10:59:01;;;;;;;16.85;3.90;;;10.80;99.90;;;;;;5093749;28;20504;-70
2023/12/21 11:01:30;;;;;;;17.95;4.20;;;10.70;99.90;;;;;;5092856;28;20055;-71
2023/12/21 11:03:59;;;;;;;11.02;3.50;;;10.70;99.90;;;;;;5078520;28;20488;-71
2023/12/21 11:06:27;;;;;;;14.48;3.88;;;10.60;99.90;;;;;;5074821;28;20051;-71
2023/12/21 11:08:55;;;;;;;21.88;4.88;;;10.50;99.90;;;;;;5073710;28;20052;-70
2023/12/21 11:11:23;;;;;;;18.98;3.70;;;10.50;99.90;;;;;;5074499;28;20052;-70
2023/12/21 11:13:52;;;;;;;25.45;4.57;;;10.50;99.90;;;;;;5093333;28;20139;-70
2023/12/21 11:16:24;;;;;;;13.98;4.13;;;10.60;99.90;;;;;;5092911;28;20044;-70
2023/12/21 11:18:56;;;;;;;14.77;3.95;;;10.70;99.90;;;;;;5093306;28;20063;-70
2023/12/21 11:21:26;;;;;;;14.77;3.67;;;10.70;99.90;;;;;;5093962;28;20385;-70
2023/12/21 11:23:53;;;;;;;15.80;3.78;;;10.70;99.90;;;;;;5096864;28;20047;-70
2023/12/21 11:26:21;;;;;;;14.43;3.15;;;10.80;99.90;;;;;;5079074;28;20090;-70
2023/12/21 11:28:49;;;;;;;26.50;4.25;;;10.80;99.90;;;;;;5078188;28;20135;-70
2023/12/21 11:31:18;;;;;;;20.10;4.30;;;10.90;99.90;;;;;;5068532;28;20044;-78
2023/12/21 11:33:45;;;;;;;18.92;4.10;;;10.80;99.90;;;;;;5073642;28;20079;-71
2023/12/21 11:36:25;;;;;;;19.20;4.20;;;10.80;99.90;;;;;;5074115;28;20582;-71
2023/12/21 11:38:53;;;;;;;14.98;3.67;;;10.80;99.90;;;;;;5075394;28;20051;-72
2023/12/21 11:41:22;;;;;;;17.08;3.88;;;10.80;99.90;;;;;;5077175;28;20052;-72
2023/12/21 11:43:56;;;;;;;15.57;4.43;;;10.80;99.90;;;;;;5075861;28;20068;-70
2023/12/21 11:46:23;;;;;;;16.70;4.38;;;10.80;99.90;;;;;;5077303;28;20095;-72
2023/12/21 11:48:50;;;;;;;19.27;5.57;;;10.90;99.90;;;;;;5065067;28;20064;-71
2023/12/21 11:51:17;;;;;;;17.33;4.90;;;10.90;99.90;;;;;;5055237;28;20048;-71
2023/12/21 11:53:45;;;;;;;19.88;4.60;;;10.90;99.90;;;;;;5076687;28;20055;-71
2023/12/21 11:56:13;;;;;;;21.40;5.30;;;10.80;99.90;;;;;;5092314;28;20419;-72
2023/12/21 11:58:41;;;;;;;19.52;4.22;;;10.90;99.90;;;;;;5095398;28;20071;-71
2023/12/21 12:01:09;;;;;;;25.38;5.70;;;10.90;99.90;;;;;;5096399;28;20051;-72
2023/12/21 12:03:36;;;;;;;15.98;4.53;;;11.00;99.90;;;;;;5087732;28;20058;-71
2023/12/21 12:06:04;;;;;;;18.65;4.85;;;11.00;99.90;;;;;;5096101;28;20044;-72
2023/12/21 12:08:34;;;;;;;18.50;5.43;;;11.00;99.90;;;;;;5096556;28;20063;-71
2023/12/21 12:11:04;;;;;;;20.70;5.63;;;11.00;99.90;;;;;;5096881;28;20437;-71
2023/12/21 12:13:32;;;;;;;21.45;4.40;;;11.00;99.90;;;;;;5075151;28;20131;-71
2023/12/21 12:15:59;;;;;;;25.83;5.80;;;11.00;99.90;;;;;;5077294;28;20052;-71
2023/12/21 12:18:25;;;;;;;15.07;3.75;;;11.00;99.90;;;;;;5076644;28;20458;-71
2023/12/21 12:20:53;;;;;;;28.25;5.55;;;11.00;99.90;;;;;;5096493;28;20051;-71
2023/12/21 12:23:21;;;;;;;20.92;5.30;;;11.00;99.90;;;;;;5096190;28;20062;-71
2023/12/21 12:25:48;;;;;;;16.30;5.50;;;10.90;99.90;;;;;;5095668;28;20055;-70
2023/12/21 12:28:17;;;;;;;16.08;3.85;;;10.90;99.90;;;;;;5096028;28;20048;-72
2023/12/21 12:30:44;;;;;;;21.85;5.80;;;10.80;99.90;;;;;;5095999;28;20499;-71
2023/12/21 12:33:11;;;;;;;15.23;5.00;;;10.90;99.90;;;;;;5094824;28;20036;-71
2023/12/21 12:35:39;;;;;;;20.52;5.57;;;10.90;99.90;;;;;;5095166;28;20055;-71
2023/12/21 12:38:06;;;;;;;20.40;4.85;;;10.90;99.90;;;;;;5091251;28;20110;-78
2023/12/21 12:40:34;;;;;;;18.25;5.55;;;10.90;99.90;;;;;;5071258;28;20048;-80
2023/12/21 12:43:01;;;;;;;18.42;4.60;;;10.90;99.90;;;;;;5087815;28;20040;-72
2023/12/21 12:45:32;;;;;;;22.25;4.97;;;11.00;99.90;;;;;;5095660;28;20060;-71
2023/12/21 12:47:59;;;;;;;18.50;5.25;;;10.90;99.90;;;;;;5095112;28;20043;-71